Time;durP1;ratioP1;P1;durP2;ratioP2;P2;SDS_P1;SDS_P2;PMS_P1;PMS_P2;Temp;Humidity;BMP_temperature;BMP_pressure;BME280_temperature;BME280_humidity;BME280_pressure;Samples;Min_cycle;Max_cycle;Signal;HPM_P1;HPM_P2
2023/10/29 00:00:01;;;;;;;8.38;4.60;;;10.00;94.90;;;;;;5112279;28;20111;-47
2023/10/29 00:02:29;;;;;;;8.77;4.18;;;10.10;94.80;;;;;;5111986;28;20047;-45
2023/10/29 00:04:56;;;;;;;6.20;3.85;;;10.10;94.80;;;;;;5112574;28;20352;-46
2023/10/29 00:07:28;;;;;;;7.78;4.20;;;10.10;94.80;;;;;;5112699;28;20028;-46
2023/10/29 00:09:57;;;;;;;7.70;4.20;;;10.10;94.80;;;;;;5110412;28;20061;-46
2023/10/29 00:12:24;;;;;;;6.97;4.57;;;10.10;94.80;;;;;;5112438;28;20107;-49
2023/10/29 00:14:50;;;;;;;5.32;3.97;;;10.20;94.80;;;;;;5094402;28;20322;-47
2023/10/29 00:17:17;;;;;;;6.70;3.60;;;10.10;94.70;;;;;;5112203;28;20079;-50
2023/10/29 00:19:45;;;;;;;8.82;4.00;;;10.20;94.80;;;;;;5112673;28;20039;-48
2023/10/29 00:22:12;;;;;;;5.05;3.50;;;10.20;94.70;;;;;;5112728;28;20024;-50
2023/10/29 00:24:39;;;;;;;7.85;3.80;;;10.20;94.70;;;;;;5111348;28;20044;-51
2023/10/29 00:27:17;;;;;;;5.82;3.53;;;10.20;94.60;;;;;;5112255;28;20024;-54
2023/10/29 00:29:46;;;;;;;8.57;4.68;;;10.20;94.70;;;;;;5112155;28;20597;-49
2023/10/29 00:32:18;;;;;;;6.63;3.83;;;10.20;94.60;;;;;;5112230;28;20147;-51
2023/10/29 00:34:47;;;;;;;6.75;3.35;;;10.20;94.60;;;;;;5111972;28;20394;-48
2023/10/29 00:37:13;;;;;;;8.73;3.95;;;10.20;94.60;;;;;;5111947;28;20042;-47
2023/10/29 00:39:41;;;;;;;7.28;3.63;;;10.20;94.60;;;;;;5109322;28;20438;-48
2023/10/29 00:42:07;;;;;;;6.40;3.58;;;10.20;94.60;;;;;;5104367;28;20016;-51
2023/10/29 00:44:36;;;;;;;7.72;3.55;;;10.30;94.60;;;;;;5099231;28;20047;-48
2023/10/29 00:47:05;;;;;;;8.82;4.07;;;10.20;94.60;;;;;;5111217;28;20020;-48
2023/10/29 00:49:45;;;;;;;8.07;3.87;;;10.20;94.60;;;;;;5097295;28;20125;-48
2023/10/29 00:52:13;;;;;;;6.68;3.75;;;10.30;94.60;;;;;;5116025;28;20362;-49
2023/10/29 00:54:43;;;;;;;6.57;3.33;;;10.30;94.60;;;;;;5096852;28;20082;-52
2023/10/29 00:57:16;;;;;;;7.40;3.50;;;10.30;94.70;;;;;;5115549;28;20043;-50
2023/10/29 00:59:53;;;;;;;10.07;3.90;;;10.30;94.60;;;;;;5115420;28;20437;-49
2023/10/29 01:02:21;;;;;;;5.38;3.53;;;10.30;94.70;;;;;;5083809;28;20028;-50
2023/10/29 01:04:48;;;;;;;7.70;3.40;;;10.30;94.80;;;;;;5095164;28;20020;-51
2023/10/29 01:07:16;;;;;;;11.05;3.72;;;10.30;94.80;;;;;;5088994;28;20040;-50
2023/10/29 01:09:43;;;;;;;7.72;3.63;;;10.30;94.90;;;;;;5061173;28;20645;-50
2023/10/29 01:12:17;;;;;;;8.50;3.50;;;10.30;95.00;;;;;;5113823;27;20445;-54
2023/10/29 01:14:47;;;;;;;5.95;3.40;;;10.30;95.00;;;;;;5115048;28;20406;-53
2023/10/29 01:17:12;;;;;;;;;;;10.30;95.00;;;;;;5116013;28;20116;-54
2023/10/29 01:19:40;;;;;;;4.95;2.90;;;10.30;95.10;;;;;;5115274;28;19961;-56
2023/10/29 01:22:06;;;;;;;8.43;3.42;;;10.40;95.10;;;;;;5113405;28;20028;-55
2023/10/29 01:24:34;;;;;;;12.13;4.45;;;10.40;95.20;;;;;;5093191;28;20044;-54
2023/10/29 01:27:03;;;;;;;6.80;3.30;;;10.30;95.20;;;;;;5112460;28;20031;-52
2023/10/29 01:29:31;;;;;;;5.15;3.60;;;10.40;95.30;;;;;;5114480;28;20032;-53
2023/10/29 01:31:58;;;;;;;7.13;3.60;;;10.40;95.30;;;;;;5079786;28;20073;-53
2023/10/29 01:34:25;;;;;;;7.13;3.83;;;10.40;95.30;;;;;;5115215;28;20028;-54
2023/10/29 01:36:52;;;;;;;12.02;4.25;;;10.40;95.40;;;;;;5096378;28;20341;-51
2023/10/29 01:39:28;;;;;;;7.47;4.30;;;10.40;95.40;;;;;;5115257;28;20035;-54
2023/10/29 01:41:56;;;;;;;6.88;3.88;;;10.40;95.50;;;;;;5114348;28;20028;-48
2023/10/29 01:44:23;;;;;;;7.10;4.47;;;10.40;95.60;;;;;;5114533;28;20111;-54
2023/10/29 01:46:50;;;;;;;6.72;4.18;;;10.30;95.60;;;;;;5114703;28;20027;-48
2023/10/29 01:49:16;;;;;;;5.60;3.85;;;10.40;95.70;;;;;;5113913;28;20058;-55
2023/10/29 01:51:41;;;;;;;6.28;4.07;;;10.40;95.80;;;;;;5079261;28;20562;-50
2023/10/29 01:54:09;;;;;;;6.20;3.92;;;10.40;95.90;;;;;;5114755;28;20027;-50
2023/10/29 01:56:39;;;;;;;9.82;5.10;;;10.40;95.90;;;;;;5095720;28;20126;-51
2023/10/29 01:59:06;;;;;;;8.07;4.65;;;10.40;96.00;;;;;;5114432;28;20480;-50
2023/10/29 02:01:33;;;;;;;7.38;4.28;;;10.40;96.00;;;;;;5114271;28;20030;-50
2023/10/29 02:04:00;;;;;;;8.27;4.35;;;10.40;96.00;;;;;;5113860;28;20024;-50
2023/10/29 02:06:27;;;;;;;7.80;4.88;;;10.40;96.10;;;;;;5114458;28;20528;-52
2023/10/29 02:08:53;;;;;;;9.90;4.72;;;10.40;96.20;;;;;;5112642;28;20483;-48
2023/10/29 02:11:20;;;;;;;9.07;5.00;;;10.40;96.20;;;;;;5111640;28;20027;-54
2023/10/29 02:13:47;;;;;;;11.05;5.78;;;10.50;96.30;;;;;;5112740;28;20083;-49
2023/10/29 02:16:15;;;;;;;9.48;4.60;;;10.50;96.30;;;;;;5110363;28;20114;-48
2023/10/29 02:18:43;;;;;;;8.02;4.95;;;10.50;96.40;;;;;;5107244;28;20582;-49
2023/10/29 02:21:11;;;;;;;7.93;4.70;;;10.50;96.40;;;;;;5075809;28;20357;-49
2023/10/29 02:23:39;;;;;;;7.70;4.53;;;10.50;96.50;;;;;;5108785;28;20048;-51
2023/10/29 02:26:05;;;;;;;6.97;4.30;;;10.60;96.50;;;;;;5103944;28;20027;-50
2023/10/29 02:28:32;;;;;;;5.95;3.95;;;10.60;96.60;;;;;;5110543;28;20043;-54
2023/10/29 02:30:59;;;;;;;6.50;4.75;;;10.60;96.60;;;;;;5111208;28;20054;-53
2023/10/29 02:33:27;;;;;;;5.70;4.28;;;10.60;96.60;;;;;;5099869;28;20089;-49
2023/10/29 02:35:53;;;;;;;9.32;4.75;;;10.60;96.70;;;;;;5095819;28;20058;-49
2023/10/29 02:38:20;;;;;;;9.98;5.32;;;10.60;96.70;;;;;;5113038;27;20028;-49
2023/10/29 02:40:47;;;;;;;7.78;4.88;;;10.70;96.70;;;;;;5099098;28;20034;-51
2023/10/29 02:43:13;;;;;;;8.00;4.75;;;10.70;96.80;;;;;;5093551;28;20028;-52
2023/10/29 02:45:40;;;;;;;8.82;5.00;;;10.70;96.70;;;;;;5103879;28;20019;-52
2023/10/29 02:48:06;;;;;;;11.77;5.75;;;10.70;96.80;;;;;;5088055;28;20356;-52
2023/10/29 02:50:32;;;;;;;8.25;5.60;;;10.70;96.80;;;;;;5103303;28;20020;-51
2023/10/29 02:52:59;;;;;;;9.65;5.25;;;10.70;96.80;;;;;;5102633;28;20023;-53
2023/10/29 02:55:24;;;;;;;9.32;6.78;;;10.70;96.80;;;;;;5110097;28;20023;-51
2023/10/29 02:57:53;;;;;;;8.57;5.45;;;10.70;96.90;;;;;;5112177;28;20035;-48
2023/10/29 03:00:18;;;;;;;6.60;5.15;;;10.80;96.90;;;;;;5112377;28;20484;-51
2023/10/29 03:02:46;;;;;;;9.00;6.28;;;10.90;97.00;;;;;;5111740;28;20031;-51
2023/10/29 03:05:14;;;;;;;11.77;5.95;;;10.90;97.00;;;;;;5095255;28;20518;-51
2023/10/29 03:07:43;;;;;;;8.05;6.15;;;10.90;97.00;;;;;;5103023;28;20024;-51
2023/10/29 03:10:08;;;;;;;8.85;5.85;;;10.90;97.00;;;;;;5098787;28;20096;-55
2023/10/29 03:12:39;;;;;;;7.90;6.18;;;10.90;97.00;;;;;;5100842;28;20099;-54
2023/10/29 03:15:06;;;;;;;7.78;6.53;;;10.90;97.00;;;;;;5105219;28;20028;-51
2023/10/29 03:17:36;;;;;;;8.65;5.82;;;10.90;97.00;;;;;;5100973;28;20051;-48
2023/10/29 03:20:03;;;;;;;;;;;10.90;97.10;;;;;;5109519;28;20028;-50
2023/10/29 03:22:30;;;;;;;8.75;5.75;;;10.90;97.10;;;;;;5112203;28;19926;-50
2023/10/29 03:24:57;;;;;;;7.78;5.55;;;10.90;97.10;;;;;;5094083;28;20376;-50
2023/10/29 03:27:23;;;;;;;8.40;5.88;;;11.00;97.10;;;;;;5111614;28;20028;-51
2023/10/29 03:29:51;;;;;;;8.30;6.00;;;11.00;97.10;;;;;;5100007;28;20048;-52
2023/10/29 03:32:18;;;;;;;6.97;5.40;;;11.00;97.10;;;;;;5094899;28;20031;-49
2023/10/29 03:34:44;;;;;;;7.50;5.40;;;11.10;97.10;;;;;;5112487;28;20031;-48
2023/10/29 03:37:11;;;;;;;8.15;5.15;;;11.10;97.10;;;;;;5094884;28;20027;-52
2023/10/29 03:39:36;;;;;;;7.25;5.25;;;11.10;97.10;;;;;;5111788;28;20022;-49
2023/10/29 03:42:04;;;;;;;10.00;5.93;;;11.10;97.10;;;;;;5111731;28;20027;-47
2023/10/29 03:44:31;;;;;;;7.65;5.72;;;11.10;97.10;;;;;;5111542;28;20020;-50
2023/10/29 03:46:58;;;;;;;6.15;5.35;;;11.10;97.20;;;;;;5111311;28;20020;-51
2023/10/29 03:49:25;;;;;;;8.63;5.50;;;11.10;97.20;;;;;;5111632;28;20024;-53
2023/10/29 03:51:53;;;;;;;8.10;6.05;;;11.10;97.10;;;;;;5094154;28;20088;-51
2023/10/29 03:54:20;;;;;;;9.50;6.07;;;11.20;97.20;;;;;;5112347;28;20097;-52
2023/10/29 03:56:48;;;;;;;9.75;5.53;;;11.20;97.20;;;;;;5094273;28;20501;-48
2023/10/29 03:59:15;;;;;;;8.90;5.50;;;11.20;97.20;;;;;;5112543;28;20044;-49
2023/10/29 04:01:40;;;;;;;7.53;5.55;;;11.20;97.20;;;;;;5110985;28;20148;-48
2023/10/29 04:04:06;;;;;;;9.68;6.15;;;11.30;97.20;;;;;;5094070;28;20126;-49
2023/10/29 04:06:34;;;;;;;7.10;5.65;;;11.30;97.20;;;;;;5112793;28;20016;-47
2023/10/29 04:09:02;;;;;;;7.70;6.22;;;11.40;97.20;;;;;;5112643;28;20024;-49
2023/10/29 04:11:29;;;;;;;10.32;5.65;;;11.40;97.10;;;;;;5111506;28;20024;-50
2023/10/29 04:13:57;;;;;;;8.90;6.00;;;11.40;97.20;;;;;;5112935;28;20027;-45
2023/10/29 04:16:26;;;;;;;7.45;5.38;;;11.40;97.20;;;;;;5077624;28;20070;-45
2023/10/29 04:18:51;;;;;;;6.80;4.60;;;11.40;97.10;;;;;;5112803;28;20031;-47
2023/10/29 04:21:19;;;;;;;6.85;4.03;;;11.40;97.20;;;;;;5094688;28;20031;-50
2023/10/29 04:23:47;;;;;;;7.43;4.75;;;11.40;97.10;;;;;;5059188;28;20059;-46
2023/10/29 04:26:19;;;;;;;5.15;3.60;;;11.40;97.10;;;;;;5086940;28;20036;-46
2023/10/29 04:28:46;;;;;;;4.57;3.83;;;11.50;97.10;;;;;;5095718;28;20028;-46
2023/10/29 04:31:12;;;;;;;5.38;3.75;;;11.50;97.10;;;;;;5095551;28;20028;-46
2023/10/29 04:33:39;;;;;;;7.95;3.58;;;11.50;97.10;;;;;;5095095;28;20027;-47
2023/10/29 04:36:06;;;;;;;8.13;3.65;;;11.50;97.00;;;;;;5094955;28;20036;-47
2023/10/29 04:38:36;;;;;;;6.57;4.10;;;11.50;97.00;;;;;;5078214;28;20035;-47
2023/10/29 04:41:02;;;;;;;11.95;4.45;;;11.50;97.00;;;;;;5093710;28;20468;-47
2023/10/29 04:43:35;;;;;;;11.63;4.40;;;11.50;96.90;;;;;;5094181;28;20475;-47
2023/10/29 04:46:04;;;;;;;5.18;3.75;;;11.50;96.90;;;;;;5094273;28;20124;-46
2023/10/29 04:48:31;;;;;;;7.53;3.53;;;11.50;96.90;;;;;;5077114;28;20024;-46
2023/10/29 04:50:57;;;;;;;5.43;3.10;;;11.50;96.90;;;;;;5094907;28;20058;-46
2023/10/29 04:53:24;;;;;;;4.30;2.90;;;11.50;96.90;;;;;;5076612;28;20090;-45
2023/10/29 04:55:51;;;;;;;7.70;2.88;;;11.60;96.90;;;;;;5092235;28;20036;-47
2023/10/29 04:58:18;;;;;;;5.75;3.80;;;11.60;96.80;;;;;;5094314;28;20023;-45
2023/10/29 05:00:45;;;;;;;4.57;2.63;;;11.60;96.90;;;;;;5095007;28;20032;-45
2023/10/29 05:03:17;;;;;;;5.22;2.88;;;11.60;96.80;;;;;;5095352;28;20024;-46
2023/10/29 05:05:42;;;;;;;5.47;3.10;;;11.60;96.80;;;;;;5094510;28;20024;-45
2023/10/29 05:08:09;;;;;;;9.70;3.33;;;11.60;96.80;;;;;;5095044;28;20023;-45
2023/10/29 05:10:36;;;;;;;7.88;3.17;;;11.60;96.80;;;;;;5092383;28;20031;-47
2023/10/29 05:13:03;;;;;;;8.13;2.75;;;11.60;96.80;;;;;;5095095;28;20472;-45
2023/10/29 05:15:31;;;;;;;4.40;2.10;;;11.70;96.70;;;;;;5076650;28;20345;-45
2023/10/29 05:17:57;;;;;;;3.90;2.33;;;11.60;96.70;;;;;;5095073;28;20052;-45
2023/10/29 05:20:24;;;;;;;6.00;2.47;;;11.60;96.60;;;;;;5076509;28;20082;-44
2023/10/29 05:22:52;;;;;;;5.82;2.63;;;11.60;96.60;;;;;;5077788;28;20036;-45
2023/10/29 05:25:19;;;;;;;4.85;2.10;;;11.60;96.50;;;;;;5104164;28;20032;-47
2023/10/29 05:27:56;;;;;;;4.30;2.13;;;11.60;96.50;;;;;;5105620;28;20028;-45
2023/10/29 05:30:22;;;;;;;3.20;2.10;;;11.60;96.50;;;;;;5091034;28;20040;-46
2023/10/29 05:32:53;;;;;;;2.88;1.60;;;11.60;96.50;;;;;;5093565;28;20024;-46
2023/10/29 05:35:21;;;;;;;6.95;2.03;;;11.50;96.40;;;;;;5094420;28;20038;-45
2023/10/29 05:37:48;;;;;;;4.55;2.10;;;11.50;96.40;;;;;;5102430;28;20047;-45
2023/10/29 05:40:14;;;;;;;5.57;2.20;;;11.50;96.30;;;;;;5114120;28;20032;-44
2023/10/29 05:42:42;;;;;;;6.35;1.83;;;11.50;96.30;;;;;;5114901;28;20084;-45
2023/10/29 05:45:12;;;;;;;5.20;1.88;;;11.50;96.30;;;;;;5114256;28;20059;-46
2023/10/29 05:47:38;;;;;;;;;;;11.60;96.30;;;;;;5115227;28;20016;-46
2023/10/29 05:50:06;;;;;;;6.15;2.40;;;11.50;96.10;;;;;;5096428;28;19926;-45
2023/10/29 05:52:32;;;;;;;4.97;1.83;;;11.60;96.20;;;;;;5114051;28;20023;-45
2023/10/29 05:55:03;;;;;;;6.30;2.05;;;11.60;96.20;;;;;;5104536;28;20396;-45
2023/10/29 05:57:29;;;;;;;3.55;2.17;;;11.60;96.20;;;;;;5094443;28;20396;-45
2023/10/29 05:59:56;;;;;;;3.85;1.77;;;11.60;96.20;;;;;;5093413;28;20032;-44
2023/10/29 06:02:25;;;;;;;4.30;1.80;;;11.70;96.10;;;;;;5105390;28;20036;-45
2023/10/29 06:04:52;;;;;;;5.13;1.75;;;11.60;96.10;;;;;;5114461;28;20091;-45
2023/10/29 06:07:25;;;;;;;4.22;1.88;;;11.60;96.00;;;;;;5114544;28;20030;-44
2023/10/29 06:09:56;;;;;;;6.57;2.00;;;11.60;95.90;;;;;;5088437;28;20024;-45
2023/10/29 06:12:26;;;;;;;5.60;1.75;;;11.60;95.90;;;;;;5094059;28;20453;-44
2023/10/29 06:14:52;;;;;;;5.75;1.85;;;11.60;95.90;;;;;;5105217;28;20429;-45
2023/10/29 06:17:19;;;;;;;4.00;2.08;;;11.50;95.80;;;;;;5086286;28;20063;-44
2023/10/29 06:19:49;;;;;;;3.40;1.67;;;11.50;95.80;;;;;;5101945;28;20390;-45
2023/10/29 06:22:16;;;;;;;2.95;1.83;;;11.50;95.80;;;;;;5103504;28;20039;-45
2023/10/29 06:24:44;;;;;;;5.43;2.10;;;11.50;95.80;;;;;;5111926;28;20480;-45
2023/10/29 06:27:11;;;;;;;4.13;1.80;;;11.50;95.80;;;;;;5107726;28;20046;-45
2023/10/29 06:29:46;;;;;;;4.28;1.83;;;11.50;95.80;;;;;;5113892;28;20019;-45
2023/10/29 06:32:16;;;;;;;5.20;2.25;;;11.50;95.90;;;;;;5093911;28;20040;-45
2023/10/29 06:34:42;;;;;;;2.88;1.50;;;11.50;95.80;;;;;;5098903;28;20019;-45
2023/10/29 06:37:10;;;;;;;4.47;2.42;;;11.50;95.70;;;;;;5113508;28;20345;-44
2023/10/29 06:39:37;;;;;;;5.90;2.40;;;11.50;95.70;;;;;;5091249;28;20106;-44
2023/10/29 06:42:04;;;;;;;5.30;2.42;;;11.50;95.80;;;;;;5109708;28;20127;-45
2023/10/29 06:44:31;;;;;;;10.43;2.10;;;11.60;95.90;;;;;;5110265;28;20027;-45
2023/10/29 06:46:58;;;;;;;5.10;2.13;;;11.60;95.80;;;;;;5112716;28;20034;-44
2023/10/29 06:49:25;;;;;;;5.22;1.58;;;11.60;95.80;;;;;;5111530;28;20042;-44
2023/10/29 06:51:54;;;;;;;5.22;1.73;;;11.70;95.80;;;;;;5111428;28;20098;-44
2023/10/29 06:54:22;;;;;;;5.38;1.63;;;11.70;95.80;;;;;;5110541;28;20479;-46
2023/10/29 06:56:49;;;;;;;3.15;1.70;;;11.70;95.70;;;;;;5109624;28;20024;-45
2023/10/29 06:59:16;;;;;;;4.07;2.13;;;11.80;95.60;;;;;;5111291;28;20494;-44
2023/10/29 07:01:42;;;;;;;4.20;1.35;;;11.80;95.60;;;;;;5109861;28;20019;-44
2023/10/29 07:04:09;;;;;;;3.75;1.52;;;11.90;95.50;;;;;;5111677;28;20140;-45
2023/10/29 07:06:35;;;;;;;4.57;1.70;;;11.90;95.40;;;;;;5110508;28;20456;-44
2023/10/29 07:09:04;;;;;;;4.20;1.65;;;11.90;95.20;;;;;;5110781;28;20031;-45
2023/10/29 07:11:36;;;;;;;3.88;1.50;;;11.90;95.20;;;;;;5099039;28;20020;-45
2023/10/29 07:14:04;;;;;;;4.68;1.60;;;12.00;95.00;;;;;;5102562;28;20035;-44
2023/10/29 07:16:30;;;;;;;2.13;1.10;;;12.00;94.80;;;;;;5106358;28;20521;-47
2023/10/29 07:18:59;;;;;;;1.80;1.17;;;12.10;94.60;;;;;;5105930;28;20456;-44
2023/10/29 07:21:28;;;;;;;3.15;1.52;;;12.10;94.50;;;;;;5112542;28;20114;-45
2023/10/29 07:23:57;;;;;;;4.35;2.78;;;12.20;94.40;;;;;;5109878;28;20134;-47
2023/10/29 07:26:24;;;;;;;7.53;1.38;;;12.20;94.40;;;;;;5100930;28;20027;-45
2023/10/29 07:28:52;;;;;;;3.92;1.70;;;12.30;94.40;;;;;;5105423;28;20032;-44
2023/10/29 07:31:20;;;;;;;3.28;1.60;;;12.30;94.30;;;;;;5106030;28;20079;-45
2023/10/29 07:33:48;;;;;;;4.65;1.58;;;12.30;94.20;;;;;;5105652;28;20512;-45
2023/10/29 07:36:13;;;;;;;6.53;1.40;;;12.30;94.20;;;;;;5104059;28;20039;-47
2023/10/29 07:38:47;;;;;;;4.63;1.20;;;12.30;94.20;;;;;;5106868;28;20043;-45
2023/10/29 07:41:21;;;;;;;4.60;1.10;;;12.40;94.10;;;;;;5105734;28;20032;-45
2023/10/29 07:43:50;;;;;;;5.85;1.20;;;12.50;94.00;;;;;;5090945;28;20031;-47
2023/10/29 07:46:17;;;;;;;3.00;1.60;;;12.60;93.90;;;;;;5107118;28;20044;-44
2023/10/29 07:48:43;;;;;;;3.92;1.30;;;12.80;93.50;;;;;;5107087;28;20368;-48
2023/10/29 07:51:11;;;;;;;5.55;1.17;;;12.90;93.20;;;;;;5108020;28;20047;-45
2023/10/29 07:53:37;;;;;;;3.42;1.10;;;12.90;92.50;;;;;;5111752;28;20373;-44
2023/10/29 07:56:08;;;;;;;2.72;1.10;;;13.00;92.10;;;;;;5114758;28;20023;-44
2023/10/29 07:58:34;;;;;;;3.20;1.25;;;13.00;92.10;;;;;;5108865;28;20566;-46
2023/10/29 08:01:04;;;;;;;2.22;0.88;;;13.00;92.30;;;;;;5114710;28;20150;-44
2023/10/29 08:03:31;;;;;;;4.10;1.40;;;13.00;92.30;;;;;;5116004;28;20154;-45
2023/10/29 08:05:57;;;;;;;4.18;1.25;;;13.10;92.20;;;;;;5116726;28;20058;-45
2023/10/29 08:08:24;;;;;;;2.13;1.00;;;13.10;92.10;;;;;;5112444;28;20023;-45
2023/10/29 08:10:50;;;;;;;3.05;1.15;;;13.20;91.40;;;;;;5112681;28;20149;-47
2023/10/29 08:13:20;;;;;;;3.40;1.35;;;13.20;91.40;;;;;;5116312;28;20070;-46
2023/10/29 08:15:46;;;;;;;3.92;1.42;;;13.30;91.40;;;;;;5115518;28;20027;-47
2023/10/29 08:18:14;;;;;;;5.13;1.00;;;13.50;91.50;;;;;;5113182;28;20054;-45
2023/10/29 08:20:44;;;;;;;3.10;0.93;;;13.60;91.10;;;;;;5095386;28;20417;-46
2023/10/29 08:23:12;;;;;;;4.55;0.93;;;13.80;90.80;;;;;;5114741;28;20531;-46
2023/10/29 08:25:40;;;;;;;7.25;1.88;;;13.80;89.80;;;;;;5111731;28;20024;-47
2023/10/29 08:28:11;;;;;;;3.15;1.10;;;13.80;89.90;;;;;;5114943;28;20011;-50
2023/10/29 08:30:37;;;;;;;2.65;0.88;;;13.90;89.50;;;;;;5107298;28;20107;-47
2023/10/29 08:33:04;;;;;;;2.92;0.80;;;13.90;89.30;;;;;;5108801;28;20027;-48
2023/10/29 08:35:32;;;;;;;3.17;1.20;;;13.90;89.00;;;;;;5103234;28;20097;-53
2023/10/29 08:37:58;;;;;;;3.45;1.20;;;14.00;88.60;;;;;;5105692;28;20024;-53
2023/10/29 08:40:25;;;;;;;4.25;0.85;;;14.00;88.40;;;;;;5086067;28;20028;-47
2023/10/29 08:42:53;;;;;;;3.00;1.25;;;14.00;88.70;;;;;;5080990;28;20035;-48
2023/10/29 08:45:19;;;;;;;9.10;1.25;;;14.00;88.50;;;;;;5106607;28;20016;-55
2023/10/29 08:47:47;;;;;;;4.70;1.20;;;14.00;88.10;;;;;;5086748;28;20016;-50
2023/10/29 08:50:14;;;;;;;5.07;1.13;;;13.90;88.10;;;;;;5113238;28;20051;-50
2023/10/29 08:52:41;;;;;;;4.00;0.93;;;13.90;87.80;;;;;;5114762;28;20035;-50
2023/10/29 08:55:08;;;;;;;2.53;0.90;;;13.90;87.70;;;;;;5113014;28;20495;-51
2023/10/29 08:57:35;;;;;;;8.50;2.03;;;13.90;87.00;;;;;;5096642;28;20039;-49
2023/10/29 09:00:03;;;;;;;2.95;1.00;;;13.70;87.30;;;;;;5111382;28;20015;-51
2023/10/29 09:02:35;;;;;;;3.60;1.20;;;13.80;87.70;;;;;;5114495;28;20061;-51
2023/10/29 09:05:01;;;;;;;2.92;0.90;;;14.00;87.40;;;;;;5114888;27;20027;-54
2023/10/29 09:07:28;;;;;;;3.83;1.13;;;14.20;87.00;;;;;;5096888;28;20035;-50
2023/10/29 09:09:55;;;;;;;2.97;1.05;;;14.40;86.50;;;;;;5114559;28;20097;-50
2023/10/29 09:12:21;;;;;;;6.40;1.33;;;14.40;85.30;;;;;;5114904;28;20640;-50
2023/10/29 09:14:48;;;;;;;2.65;1.08;;;14.60;84.60;;;;;;5097156;28;20023;-49
2023/10/29 09:17:15;;;;;;;2.30;0.90;;;14.70;84.00;;;;;;5111991;28;20127;-50
2023/10/29 09:19:42;;;;;;;3.92;1.00;;;14.80;83.50;;;;;;5105223;28;20460;-49
2023/10/29 09:22:11;;;;;;;2.45;0.75;;;14.90;82.90;;;;;;5106352;28;20040;-51
2023/10/29 09:24:40;;;;;;;4.57;1.17;;;14.90;83.20;;;;;;5103074;28;20105;-52
2023/10/29 09:27:08;;;;;;;2.67;0.80;;;14.90;82.50;;;;;;5105121;28;20046;-49
2023/10/29 09:29:44;;;;;;;2.67;0.50;;;14.90;82.80;;;;;;5103753;28;20043;-49
2023/10/29 09:32:09;;;;;;;4.35;0.70;;;14.90;81.90;;;;;;5104755;28;20468;-50
2023/10/29 09:34:36;;;;;;;4.47;0.98;;;14.90;82.30;;;;;;5105077;28;20031;-52
2023/10/29 09:37:04;;;;;;;4.55;1.00;;;14.90;82.30;;;;;;5087955;28;20036;-52
2023/10/29 09:39:35;;;;;;;4.43;1.70;;;15.00;80.00;;;;;;5105475;28;20024;-52
2023/10/29 09:42:08;;;;;;;2.58;0.60;;;15.10;80.60;;;;;;5105117;28;20066;-54
2023/10/29 09:44:36;;;;;;;3.60;0.90;;;15.10;79.40;;;;;;5104505;28;20774;-50
2023/10/29 09:47:15;;;;;;;3.95;1.10;;;15.10;79.20;;;;;;5084254;28;20402;-51
2023/10/29 09:49:41;;;;;;;6.70;0.85;;;15.20;79.20;;;;;;5095176;28;20103;-53
2023/10/29 09:52:09;;;;;;;3.72;0.80;;;15.20;78.50;;;;;;5105260;28;20030;-51
2023/10/29 09:54:40;;;;;;;10.55;1.17;;;15.20;77.80;;;;;;5106015;28;20042;-49
2023/10/29 09:57:10;;;;;;;4.55;0.90;;;15.30;77.70;;;;;;5087303;28;20046;-49
2023/10/29 09:59:38;;;;;;;3.88;0.90;;;15.40;78.00;;;;;;5104588;28;20024;-52
2023/10/29 10:02:05;;;;;;;4.25;0.85;;;15.40;78.20;;;;;;5102688;28;20070;-52
2023/10/29 10:04:36;;;;;;;3.65;0.93;;;15.40;79.00;;;;;;5105108;28;20016;-48
2023/10/29 10:07:06;;;;;;;5.95;1.25;;;15.50;77.80;;;;;;5086777;28;20082;-49
2023/10/29 10:09:55;;;;;;;1.70;0.70;;;15.50;77.40;;;;;;5086705;28;20020;-49
2023/10/29 10:12:27;;;;;;;1.73;0.63;;;15.60;76.50;;;;;;5080280;27;20023;-51
2023/10/29 10:15:06;;;;;;;2.65;1.17;;;15.70;77.00;;;;;;5108959;28;20388;-48
2023/10/29 10:17:34;;;;;;;4.57;0.73;;;15.60;76.70;;;;;;5091022;27;20023;-48
2023/10/29 10:20:07;;;;;;;4.63;1.02;;;15.50;76.30;;;;;;5111048;28;20770;-50
2023/10/29 10:22:35;;;;;;;6.10;1.13;;;15.40;75.70;;;;;;5094104;28;20024;-51
2023/10/29 10:25:01;;;;;;;3.17;0.88;;;15.50;77.00;;;;;;5106702;28;20040;-51
2023/10/29 10:27:29;;;;;;;3.83;1.25;;;15.60;77.00;;;;;;5101422;28;20097;-48
2023/10/29 10:29:57;;;;;;;2.67;0.60;;;15.70;76.60;;;;;;5091822;28;20028;-49
2023/10/29 10:32:26;;;;;;;6.27;0.80;;;15.70;75.50;;;;;;5090858;28;20048;-49
2023/10/29 10:34:52;;;;;;;4.05;1.40;;;15.70;74.80;;;;;;5103277;28;20269;-49
2023/10/29 10:37:24;;;;;;;6.05;1.15;;;15.60;75.40;;;;;;5085876;28;20028;-48
2023/10/29 10:39:51;;;;;;;5.50;0.90;;;15.60;75.60;;;;;;5101917;28;20097;-48
2023/10/29 10:42:25;;;;;;;2.83;0.70;;;15.60;75.00;;;;;;5104706;28;20130;-48
2023/10/29 10:44:57;;;;;;;3.20;0.60;;;15.50;75.20;;;;;;5105972;28;20024;-51
2023/10/29 10:47:26;;;;;;;3.10;0.73;;;15.50;75.10;;;;;;5051299;28;20059;-52
2023/10/29 10:49:55;;;;;;;5.28;0.73;;;15.30;75.70;;;;;;5071909;28;20024;-50
2023/10/29 10:52:23;;;;;;;4.47;0.93;;;15.20;76.20;;;;;;5093244;28;20032;-50
2023/10/29 10:54:49;;;;;;;4.68;1.30;;;15.20;76.80;;;;;;5102080;28;20035;-49
2023/10/29 10:57:17;;;;;;;4.25;1.27;;;15.20;77.20;;;;;;5078508;28;20453;-52
2023/10/29 10:59:44;;;;;;;5.20;1.13;;;15.30;76.90;;;;;;5112927;28;20428;-50
2023/10/29 11:02:12;;;;;;;4.68;0.80;;;15.30;77.80;;;;;;5094679;28;20035;-49
2023/10/29 11:04:42;;;;;;;3.95;1.25;;;15.40;76.90;;;;;;5110148;28;20663;-48
2023/10/29 11:07:09;;;;;;;6.07;1.35;;;15.40;76.20;;;;;;5095526;28;20044;-49
2023/10/29 11:09:38;;;;;;;5.20;1.25;;;15.40;76.80;;;;;;5110790;28;20059;-50
2023/10/29 11:12:05;;;;;;;3.72;1.13;;;15.40;76.60;;;;;;5094750;28;20083;-52
2023/10/29 11:14:32;;;;;;;3.63;1.15;;;15.30;76.90;;;;;;5112630;28;20035;-49
2023/10/29 11:17:02;;;;;;;5.85;1.38;;;15.20;77.00;;;;;;5094188;28;20511;-50
2023/10/29 11:19:47;;;;;;;5.38;1.40;;;15.10;77.10;;;;;;5112926;28;20027;-53
2023/10/29 11:22:21;;;;;;;6.65;1.02;;;15.00;77.20;;;;;;5112239;28;20032;-48
2023/10/29 11:25:08;;;;;;;4.28;1.25;;;15.00;78.00;;;;;;5089854;28;20048;-48
2023/10/29 11:27:50;;;;;;;8.68;1.05;;;14.90;78.60;;;;;;5091615;28;20099;-50
2023/10/29 11:30:33;;;;;;;6.93;1.65;;;14.80;78.80;;;;;;5091644;28;20020;-51
2023/10/29 11:33:31;;;;;;;12.48;1.80;;;14.70;78.90;;;;;;5090564;28;20032;-52
2023/10/29 11:36:37;;;;;;;7.68;1.50;;;14.90;79.20;;;;;;5092401;28;20051;-53
2023/10/29 11:39:28;;;;;;;8.65;1.55;;;15.00;78.40;;;;;;5075813;28;20047;-52
2023/10/29 11:41:55;;;;;;;5.88;1.48;;;15.10;78.00;;;;;;5074019;28;20024;-48
2023/10/29 11:44:27;;;;;;;3.60;1.20;;;15.10;77.60;;;;;;5092027;28;20039;-51
2023/10/29 11:46:58;;;;;;;6.65;1.15;;;14.90;77.80;;;;;;5090825;28;20479;-51
2023/10/29 11:49:44;;;;;;;6.40;1.88;;;14.90;78.40;;;;;;5085496;28;20058;-51
2023/10/29 11:52:12;;;;;;;5.28;1.67;;;14.90;77.50;;;;;;5082863;28;20361;-49
2023/10/29 11:54:38;;;;;;;6.03;1.30;;;14.90;76.30;;;;;;5079524;28;20024;-52
2023/10/29 11:57:06;;;;;;;5.70;1.95;;;14.90;77.20;;;;;;5091440;28;20028;-50
2023/10/29 11:59:53;;;;;;;4.53;0.93;;;15.00;77.50;;;;;;5073721;28;20069;-55
2023/10/29 12:02:21;;;;;;;7.72;1.20;;;15.10;76.90;;;;;;5073652;28;20119;-51
2023/10/29 12:04:48;;;;;;;7.38;1.38;;;15.20;76.40;;;;;;5091798;28;20024;-53
2023/10/29 12:07:32;;;;;;;4.53;0.88;;;15.30;76.50;;;;;;5072588;28;20119;-48
2023/10/29 12:10:07;;;;;;;5.57;1.33;;;15.40;76.10;;;;;;5075177;28;20039;-50
2023/10/29 12:12:37;;;;;;;7.78;1.48;;;15.40;75.30;;;;;;5072689;28;20043;-54
2023/10/29 12:15:07;;;;;;;3.78;1.13;;;15.40;75.00;;;;;;5091815;28;20035;-55
2023/10/29 12:17:35;;;;;;;7.35;1.50;;;15.40;75.20;;;;;;5088948;28;20036;-49
2023/10/29 12:20:03;;;;;;;5.93;1.35;;;15.40;75.70;;;;;;5090816;28;20027;-53
2023/10/29 12:22:32;;;;;;;6.60;1.38;;;15.30;76.00;;;;;;5088323;28;20047;-51
2023/10/29 12:25:02;;;;;;;5.70;1.35;;;15.20;76.20;;;;;;5095705;28;20111;-48
2023/10/29 12:27:28;;;;;;;5.72;1.65;;;15.10;76.80;;;;;;5100721;28;20392;-53
2023/10/29 12:29:58;;;;;;;6.20;1.42;;;14.90;76.10;;;;;;5091622;28;20103;-51
2023/10/29 12:32:26;;;;;;;7.70;2.13;;;15.00;75.90;;;;;;5108625;28;20011;-51
2023/10/29 12:34:59;;;;;;;3.47;0.82;;;14.90;75.80;;;;;;5085622;28;20455;-50
2023/10/29 12:37:30;;;;;;;6.15;2.17;;;15.00;76.40;;;;;;5100756;28;20036;-54
2023/10/29 12:40:00;;;;;;;8.18;1.70;;;14.90;76.90;;;;;;5079403;28;20506;-55
2023/10/29 12:42:52;;;;;;;4.57;1.30;;;15.00;75.90;;;;;;5103422;28;20188;-52
2023/10/29 12:45:27;;;;;;;6.32;1.67;;;14.90;74.70;;;;;;5108906;28;20506;-48
2023/10/29 12:48:15;;;;;;;3.25;1.42;;;14.90;75.10;;;;;;5104068;28;20042;-54
2023/10/29 12:50:46;;;;;;;5.78;1.55;;;15.00;75.60;;;;;;5108740;28;20028;-54
2023/10/29 12:53:23;;;;;;;6.97;1.48;;;15.00;75.50;;;;;;5108923;28;20055;-51
2023/10/29 12:55:50;;;;;;;5.10;1.60;;;14.90;75.60;;;;;;5091285;28;20119;-51